createdAt,value
2022-10-11T00:00:46.469Z,7.22
2022-10-11T00:03:31.722Z,7.20
2022-10-11T00:06:00.055Z,7.19
2022-10-11T00:08:28.022Z,7.18
2022-10-11T00:10:59.202Z,7.18
2022-10-11T00:13:27.758Z,7.17
2022-10-11T00:15:56.605Z,7.17
2022-10-11T00:18:25.460Z,7.16
2022-10-11T00:21:08.381Z,7.16
2022-10-11T00:23:37.163Z,7.16
2022-10-11T00:26:08.045Z,7.17
2022-10-11T00:28:37.270Z,7.20
2022-10-11T00:31:14.869Z,7.21
2022-10-11T00:33:42.993Z,7.23
2022-10-11T00:36:14.706Z,7.24
2022-10-11T00:38:44.055Z,7.26
2022-10-11T00:41:12.280Z,7.29
2022-10-11T00:43:40.248Z,7.29
2022-10-11T00:46:30.014Z,7.31
2022-10-11T00:49:07.400Z,7.33
2022-10-11T00:51:41.704Z,7.34
2022-10-11T00:54:15.160Z,7.36
2022-10-11T00:56:45.850Z,7.39
2022-10-11T00:59:19.888Z,7.41
2022-10-11T01:01:48.162Z,7.43
2022-10-11T01:04:16.310Z,7.45
2022-10-11T01:06:45.205Z,7.47
2022-10-11T01:09:14.607Z,7.49
2022-10-11T01:11:44.517Z,7.52
2022-10-11T01:14:21.807Z,7.54
2022-10-11T01:17:08.442Z,7.57
2022-10-11T01:20:22.130Z,7.60
2022-10-11T01:23:11.119Z,7.64
2022-10-11T01:26:04.824Z,7.68
2022-10-11T01:29:10.337Z,7.72
2022-10-11T01:31:49.384Z,7.76
2022-10-11T01:34:40.194Z,7.78
2022-10-11T01:37:19.328Z,7.82
2022-10-11T01:39:59.057Z,7.85
2022-10-11T01:42:28.869Z,7.88
2022-10-11T01:44:58.843Z,7.90
2022-10-11T01:47:27.121Z,7.92
2022-10-11T01:50:01.053Z,7.94
2022-10-11T01:52:34.149Z,7.95
2022-10-11T01:55:13.803Z,7.97
2022-10-11T01:58:00.103Z,7.98
2022-10-11T02:00:40.250Z,8.00
2022-10-11T02:03:34.874Z,8.01
2022-10-11T02:06:29.504Z,8.03
2022-10-11T02:09:28.777Z,8.05
2022-10-11T02:12:10.287Z,8.06
2022-10-11T02:14:50.294Z,8.08
2022-10-11T02:17:22.636Z,8.09
2022-10-11T02:19:54.618Z,8.10
2022-10-11T02:22:26.485Z,8.12
2022-10-11T02:24:59.077Z,8.13
2022-10-11T02:27:31.430Z,8.14
2022-10-11T02:30:02.701Z,8.16
2022-10-11T02:32:32.319Z,8.17
2022-10-11T02:35:02.506Z,8.18
2022-10-11T02:37:53.518Z,8.20
2022-10-11T02:40:27.716Z,8.21
2022-10-11T02:43:11.061Z,8.24
2022-10-11T02:45:47.556Z,8.26
2022-10-11T02:48:16.011Z,8.27
2022-10-11T02:50:44.186Z,8.29
2022-10-11T02:53:12.362Z,8.31
2022-10-11T02:55:40.637Z,8.32
2022-10-11T02:58:08.712Z,8.33
2022-10-11T03:00:36.720Z,8.34
2022-10-11T03:03:04.647Z,8.36
2022-10-11T03:05:37.263Z,8.37
2022-10-11T03:08:05.399Z,8.38
2022-10-11T03:10:34.904Z,8.40
2022-10-11T03:13:02.846Z,8.41
2022-10-11T03:15:31.047Z,8.42
2022-10-11T03:17:59.054Z,8.43
2022-10-11T03:20:26.944Z,8.44
2022-10-11T03:22:54.854Z,8.43
2022-10-11T03:25:22.927Z,8.41
2022-10-11T03:27:50.897Z,8.38
2022-10-11T03:30:20.300Z,8.34
2022-10-11T03:32:48.165Z,8.32
2022-10-11T03:35:16.243Z,8.31
2022-10-11T03:37:44.977Z,8.31
2022-10-11T03:40:14.164Z,8.30
2022-10-11T03:42:42.194Z,8.28
2022-10-11T03:45:10.947Z,8.27
2022-10-11T03:47:40.389Z,8.27
2022-10-11T03:50:09.978Z,8.27
2022-10-11T03:52:37.863Z,8.25
2022-10-11T03:55:07.378Z,8.24
2022-10-11T03:57:35.336Z,8.24
2022-10-11T04:00:05.387Z,8.23
2022-10-11T04:02:38.288Z,8.22
2022-10-11T04:05:07.567Z,8.22
2022-10-11T04:07:35.510Z,8.22
2022-10-11T04:10:03.724Z,8.22
2022-10-11T04:12:31.801Z,8.22
2022-10-11T04:14:59.829Z,8.22
2022-10-11T04:17:27.799Z,8.22
2022-10-11T04:19:55.766Z,8.23
2022-10-11T04:22:23.942Z,8.22
2022-10-11T04:24:52.319Z,8.23
2022-10-11T04:27:20.242Z,8.24
2022-10-11T04:29:48.155Z,8.24
2022-10-11T04:32:16.041Z,8.25
2022-10-11T04:34:44.094Z,8.26
2022-10-11T04:37:12.177Z,8.27
2022-10-11T04:39:40.068Z,8.27
2022-10-11T04:42:08.013Z,8.28
2022-10-11T04:44:36.189Z,8.28
2022-10-11T04:47:04.796Z,8.29
2022-10-11T04:49:32.939Z,8.28
2022-10-11T04:52:00.928Z,8.28
2022-10-11T04:54:29.087Z,8.28
2022-10-11T04:56:57.168Z,8.28
2022-10-11T04:59:25.145Z,8.28
2022-10-11T05:01:53.575Z,8.29
2022-10-11T05:04:21.681Z,8.30
2022-10-11T05:06:49.756Z,8.32
2022-10-11T05:09:17.932Z,8.33
2022-10-11T05:11:45.893Z,8.35
2022-10-11T05:14:14.274Z,8.38
2022-10-11T05:16:42.343Z,8.40
2022-10-11T05:19:10.621Z,8.43
2022-10-11T05:21:38.508Z,8.45
2022-10-11T05:24:06.942Z,8.48
2022-10-11T05:26:34.900Z,8.50
2022-10-11T05:29:03.320Z,8.51
2022-10-11T05:31:31.316Z,8.53
2022-10-11T05:34:00.100Z,8.55
2022-10-11T05:36:28.249Z,8.57
2022-10-11T05:38:56.422Z,8.59
2022-10-11T05:41:24.700Z,8.60
2022-10-11T05:43:52.671Z,8.60
2022-10-11T05:46:20.744Z,8.61
2022-10-11T05:48:48.813Z,8.64
2022-10-11T05:51:16.742Z,8.67
2022-10-11T05:53:44.751Z,8.69
2022-10-11T05:56:21.594Z,8.72
2022-10-11T05:58:51.044Z,8.75
2022-10-11T06:01:20.175Z,8.78
2022-10-11T06:03:48.315Z,8.81
2022-10-11T06:06:17.205Z,8.83
2022-10-11T06:08:45.481Z,8.86
2022-10-11T06:11:25.399Z,8.85
2022-10-11T06:14:00.777Z,8.86
2022-10-11T06:16:28.849Z,8.89
2022-10-11T06:18:57.706Z,8.91
2022-10-11T06:21:26.014Z,8.93
2022-10-11T06:23:59.841Z,8.96
2022-10-11T06:26:30.007Z,8.98
2022-10-11T06:28:58.893Z,8.99
2022-10-11T06:31:27.415Z,9.03
2022-10-11T06:33:55.342Z,9.05
2022-10-11T06:36:23.354Z,9.08
2022-10-11T06:38:53.069Z,9.08
2022-10-11T06:41:27.874Z,9.11
2022-10-11T06:43:56.584Z,9.14
2022-10-11T06:46:27.370Z,9.16
2022-10-11T06:48:56.671Z,9.18
2022-10-11T06:51:25.868Z,9.18
2022-10-11T06:53:56.903Z,9.21
2022-10-11T06:56:26.729Z,9.24
2022-10-11T06:58:56.860Z,9.27
2022-10-11T07:01:26.065Z,9.30
2022-10-11T07:03:55.367Z,9.33
2022-10-11T07:06:26.251Z,9.34
2022-10-11T07:08:54.966Z,9.40
2022-10-11T07:11:26.622Z,9.47
2022-10-11T07:14:00.760Z,9.56
2022-10-11T07:16:29.011Z,9.65
2022-10-11T07:19:00.899Z,9.74
2022-10-11T07:21:31.863Z,9.84
2022-10-11T07:24:00.855Z,9.92
2022-10-11T07:26:36.644Z,10.00
2022-10-11T07:29:10.857Z,10.06
2022-10-11T07:31:41.399Z,10.12
2022-10-11T07:34:10.391Z,10.20
2022-10-11T07:36:38.521Z,10.29
2022-10-11T07:39:07.989Z,10.36
2022-10-11T07:41:38.174Z,10.44
2022-10-11T07:44:08.732Z,10.51
2022-10-11T07:46:36.644Z,10.57
2022-10-11T07:49:05.190Z,10.61
2022-10-11T07:51:33.303Z,10.70
2022-10-11T07:54:07.031Z,10.80
2022-10-11T07:56:37.137Z,10.88
2022-10-11T07:59:06.387Z,10.97
2022-10-11T08:01:34.366Z,11.12
2022-10-11T08:04:02.292Z,11.29
2022-10-11T08:06:32.789Z,11.47
2022-10-11T08:09:01.888Z,11.80
2022-10-11T08:11:36.020Z,12.29
2022-10-11T08:14:08.936Z,12.79
2022-10-11T08:16:38.883Z,13.03
2022-10-11T08:19:07.466Z,13.13
2022-10-11T08:21:36.302Z,13.16
2022-10-11T08:24:05.772Z,13.14
2022-10-11T08:26:34.095Z,13.18
2022-10-11T08:29:05.501Z,13.59
2022-10-11T08:31:34.787Z,14.54
2022-10-11T08:34:02.870Z,16.18
2022-10-11T08:36:31.796Z,17.20
2022-10-11T08:39:00.901Z,18.04
2022-10-11T08:41:49.921Z,18.76
2022-10-11T08:44:25.257Z,19.05
2022-10-11T08:47:02.755Z,18.99
2022-10-11T08:49:33.482Z,18.90
2022-10-11T08:52:15.712Z,18.80
2022-10-11T08:54:47.137Z,18.60
2022-10-11T08:57:22.827Z,18.47
2022-10-11T08:59:58.229Z,18.41
2022-10-11T09:03:06.451Z,18.30
2022-10-11T09:05:51.272Z,18.14
2022-10-11T09:09:04.348Z,18.01
2022-10-11T09:12:13.510Z,17.78
2022-10-11T09:15:08.998Z,17.62
2022-10-11T09:17:50.989Z,17.52
2022-10-11T09:20:41.925Z,17.43
2022-10-11T09:23:34.137Z,17.32
2022-10-11T09:26:14.702Z,17.28
2022-10-11T09:29:01.152Z,17.27
2022-10-11T09:31:30.407Z,17.23
2022-10-11T09:34:10.485Z,17.18
2022-10-11T09:37:15.825Z,17.13
2022-10-11T09:39:57.508Z,17.05
2022-10-11T09:42:25.868Z,16.97
2022-10-11T09:44:55.480Z,16.97
2022-10-11T09:47:27.143Z,16.97
2022-10-11T09:50:01.595Z,17.00
2022-10-11T09:52:30.137Z,17.02
2022-10-11T09:55:00.712Z,17.06
2022-10-11T09:57:32.649Z,17.06
2022-10-11T10:00:19.819Z,17.05
2022-10-11T10:02:49.772Z,17.07
2022-10-11T10:05:20.421Z,17.08
2022-10-11T10:08:20.525Z,17.08
2022-10-11T10:11:04.670Z,17.09
2022-10-11T10:13:52.264Z,17.14
2022-10-11T10:16:21.811Z,17.21
2022-10-11T10:18:58.533Z,17.28
2022-10-11T10:21:37.355Z,17.39
2022-10-11T10:24:09.762Z,17.50
2022-10-11T10:26:37.957Z,17.62
2022-10-11T10:29:08.717Z,17.71
2022-10-11T10:34:58.304Z,17.84
2022-10-11T10:37:53.867Z,17.90
2022-10-11T10:40:29.123Z,17.96
2022-10-11T10:42:58.035Z,18.09
2022-10-11T10:45:41.260Z,18.25
2022-10-11T10:48:53.803Z,18.42
2022-10-11T10:51:32.935Z,18.60
2022-10-11T10:54:10.240Z,18.79
2022-10-11T10:56:46.679Z,18.99
2022-10-11T10:59:20.653Z,19.23
2022-10-11T11:02:40.760Z,19.45
2022-10-11T11:05:30.628Z,19.70
2022-10-11T11:08:13.370Z,19.90
2022-10-11T11:10:57.617Z,20.08
2022-10-11T11:13:55.692Z,20.24
2022-10-11T11:17:08.312Z,20.44
2022-10-11T11:19:36.731Z,20.64
2022-10-11T11:22:22.884Z,20.78
2022-10-11T11:25:07.208Z,20.97
2022-10-11T11:27:58.658Z,21.13
2022-10-11T11:30:41.260Z,21.24
2022-10-11T11:33:12.149Z,21.42
2022-10-11T11:35:48.780Z,21.59
2022-10-11T11:38:40.764Z,21.77
2022-10-11T11:41:17.798Z,22.02
2022-10-11T11:44:03.736Z,22.28
2022-10-11T11:46:41.944Z,22.65
2022-10-11T11:49:21.639Z,23.38
2022-10-11T11:51:50.841Z,24.60
2022-10-11T11:54:44.105Z,25.62
2022-10-11T11:57:30.553Z,26.43
2022-10-11T12:00:19.673Z,27.10
2022-10-11T12:03:00.019Z,27.75
2022-10-11T12:05:32.215Z,28.59
2022-10-11T12:08:20.496Z,29.64
2022-10-11T12:10:51.383Z,30.75
2022-10-11T12:13:34.665Z,31.65
2022-10-11T12:16:11.589Z,32.46
2022-10-11T12:18:57.790Z,33.20
2022-10-11T12:21:29.854Z,33.88
2022-10-11T12:24:00.790Z,34.41
2022-10-11T12:26:28.664Z,34.81
2022-10-11T12:29:05.802Z,35.11
2022-10-11T12:31:36.955Z,35.28
2022-10-11T12:34:07.985Z,35.43
2022-10-11T12:36:44.556Z,35.54
2022-10-11T12:39:18.747Z,35.57
2022-10-11T12:41:47.871Z,35.51
2022-10-11T12:44:18.908Z,35.41
2022-10-11T12:46:57.841Z,35.27
2022-10-11T12:49:56.217Z,35.07
2022-10-11T12:52:36.971Z,34.59
2022-10-11T12:55:10.919Z,33.95
2022-10-11T12:58:00.929Z,33.19
2022-10-11T13:00:32.594Z,32.27
2022-10-11T13:03:28.441Z,31.46
2022-10-11T13:06:01.992Z,30.65
2022-10-11T13:08:34.702Z,29.96
2022-10-11T13:11:08.860Z,29.37
2022-10-11T13:13:44.331Z,28.78
2022-10-11T13:16:22.052Z,28.19
2022-10-11T13:18:54.044Z,27.65
2022-10-11T13:21:36.784Z,27.16
2022-10-11T13:24:13.076Z,26.67
2022-10-11T13:26:43.218Z,26.20
2022-10-11T13:29:31.253Z,25.76
2022-10-11T13:32:01.021Z,25.23
2022-10-11T13:34:34.422Z,24.76
2022-10-11T13:37:04.144Z,24.33
2022-10-11T13:39:38.004Z,23.91
2022-10-11T13:42:10.909Z,23.52
2022-10-11T13:44:39.546Z,23.13
2022-10-11T13:47:13.184Z,22.76
2022-10-11T13:49:47.291Z,22.39
2022-10-11T13:52:18.344Z,22.05
2022-10-11T13:55:09.239Z,21.75
2022-10-11T13:57:47.212Z,21.47
2022-10-11T14:00:15.266Z,21.22
2022-10-11T14:02:58.362Z,21.02
2022-10-11T14:05:34.106Z,20.81
2022-10-11T14:08:06.207Z,20.64
2022-10-11T14:10:34.600Z,20.48
2022-10-11T14:13:23.338Z,20.33
2022-10-11T14:16:10.176Z,20.16
2022-10-11T14:18:40.739Z,20.00
2022-10-11T14:21:20.615Z,19.86
2022-10-11T14:23:53.776Z,19.70
2022-10-11T14:26:23.873Z,19.54
2022-10-11T14:29:00.860Z,19.40
2022-10-11T14:31:31.214Z,19.24
2022-10-11T14:33:59.714Z,19.12
2022-10-11T14:36:28.067Z,18.99
2022-10-11T14:38:56.135Z,18.88
2022-10-11T14:41:24.284Z,18.76
2022-10-11T14:43:53.365Z,18.64
2022-10-11T14:46:24.915Z,18.52
2022-10-11T14:48:55.953Z,18.39
2022-10-11T14:51:31.065Z,18.25
2022-10-11T14:53:58.976Z,18.11
2022-10-11T14:56:26.989Z,17.97
2022-10-11T14:58:54.900Z,17.82
2022-10-11T15:01:22.842Z,17.68
2022-10-11T15:03:51.087Z,17.53
2022-10-11T15:06:26.533Z,17.38
2022-10-11T15:08:55.177Z,17.21
2022-10-11T15:11:24.472Z,17.04
2022-10-11T15:13:52.423Z,16.88
2022-10-11T15:16:21.791Z,16.73
2022-10-11T15:18:52.999Z,16.58
2022-10-11T15:21:24.283Z,16.42
2022-10-11T15:23:53.622Z,16.25
2022-10-11T15:26:29.540Z,16.09
2022-10-11T15:28:58.090Z,15.93
2022-10-11T15:31:26.299Z,15.78
2022-10-11T15:33:54.237Z,15.63
2022-10-11T15:36:22.861Z,15.48
2022-10-11T15:38:51.437Z,15.34
2022-10-11T15:41:20.233Z,15.20
2022-10-11T15:43:49.364Z,15.06
2022-10-11T15:46:20.878Z,14.92
2022-10-11T15:48:50.501Z,14.75
2022-10-11T15:51:19.073Z,14.60
2022-10-11T15:53:47.512Z,14.44
2022-10-11T15:56:18.748Z,14.28
2022-10-11T15:58:47.027Z,14.12
2022-10-11T16:01:19.976Z,13.98
2022-10-11T16:03:49.574Z,13.83
2022-10-11T16:06:19.185Z,13.69
2022-10-11T16:08:48.190Z,13.56
2022-10-11T16:11:16.196Z,13.41
2022-10-11T16:13:45.153Z,13.28
2022-10-11T16:16:13.211Z,13.15
2022-10-11T16:18:41.304Z,13.03
2022-10-11T16:21:11.711Z,12.91
2022-10-11T16:23:39.796Z,12.80
2022-10-11T16:26:12.049Z,12.68
2022-10-11T16:28:41.014Z,12.58
2022-10-11T16:31:16.932Z,12.48
2022-10-11T16:33:48.193Z,12.37
2022-10-11T16:36:40.839Z,12.27
2022-10-11T16:39:16.043Z,12.17
2022-10-11T16:41:44.716Z,12.08
2022-10-11T16:44:14.906Z,11.99
2022-10-11T16:46:48.643Z,11.90
2022-10-11T16:49:19.786Z,11.81
2022-10-11T16:51:48.165Z,11.73
2022-10-11T16:54:20.450Z,11.65
2022-10-11T16:56:50.197Z,11.58
2022-10-11T16:59:18.728Z,11.53
2022-10-11T17:01:46.804Z,11.49
2022-10-11T17:04:15.389Z,11.44
2022-10-11T17:06:44.175Z,11.41
2022-10-11T17:09:12.963Z,11.40
2022-10-11T17:11:41.444Z,11.37
2022-10-11T17:14:11.795Z,11.36
2022-10-11T17:16:40.148Z,11.37
2022-10-11T17:19:14.057Z,11.38
2022-10-11T17:21:42.244Z,11.39
2022-10-11T17:24:10.201Z,11.41
2022-10-11T17:26:38.170Z,11.43
2022-10-11T17:29:06.137Z,11.45
2022-10-11T17:31:36.567Z,11.48
2022-10-11T17:34:04.640Z,11.51
2022-10-11T17:36:36.302Z,11.54
2022-10-11T17:39:07.644Z,11.56
2022-10-11T17:41:36.741Z,11.59
2022-10-11T17:44:05.006Z,11.62
2022-10-11T17:46:33.604Z,11.64
2022-10-11T17:49:06.316Z,11.67
2022-10-11T17:51:36.440Z,11.69
2022-10-11T17:54:06.435Z,11.71
2022-10-11T17:56:37.910Z,11.74
2022-10-11T17:59:07.953Z,11.75
2022-10-11T18:01:36.410Z,11.77
2022-10-11T18:04:06.343Z,11.78
2022-10-11T18:06:39.485Z,11.79
2022-10-11T18:09:07.751Z,11.80
2022-10-11T18:11:36.743Z,11.81
2022-10-11T18:14:05.644Z,11.83
2022-10-11T18:16:35.042Z,11.84
2022-10-11T18:19:05.776Z,11.85
2022-10-11T18:21:35.034Z,11.86
2022-10-11T18:24:06.595Z,11.87
2022-10-11T18:26:34.598Z,11.88
2022-10-11T18:29:02.668Z,11.89
2022-10-11T18:31:33.826Z,11.90
2022-10-11T18:34:03.319Z,11.91
2022-10-11T18:36:32.517Z,11.92
2022-10-11T18:39:02.562Z,11.92
2022-10-11T18:41:32.301Z,11.92
2022-10-11T18:44:06.305Z,11.92
2022-10-11T18:46:35.145Z,11.93
2022-10-11T18:49:03.936Z,11.93
2022-10-11T18:51:38.050Z,11.93
2022-10-11T18:54:08.172Z,11.94
2022-10-11T18:56:37.103Z,11.94
2022-10-11T18:59:07.180Z,11.96
2022-10-11T19:01:38.337Z,11.96
2022-10-11T19:04:09.078Z,11.95
2022-10-11T19:06:41.058Z,11.95
2022-10-11T19:09:12.779Z,11.95
2022-10-11T19:11:41.779Z,11.95
2022-10-11T19:14:15.330Z,11.95
2022-10-11T19:16:49.385Z,11.96
2022-10-11T19:19:19.725Z,11.95
2022-10-11T19:21:48.881Z,11.95
2022-10-11T19:24:17.609Z,11.95
2022-10-11T19:26:46.151Z,11.95
2022-10-11T19:29:16.619Z,11.95
2022-10-11T19:31:50.438Z,11.95
2022-10-11T19:34:19.877Z,11.95
2022-10-11T19:36:50.778Z,11.95
2022-10-11T19:39:20.815Z,11.94
2022-10-11T19:41:50.129Z,11.94
2022-10-11T19:44:18.350Z,11.95
2022-10-11T19:46:53.884Z,11.94
2022-10-11T19:49:26.033Z,11.94
2022-10-11T19:51:55.638Z,11.94
2022-10-11T19:54:24.066Z,11.94
2022-10-11T19:56:52.745Z,11.93
2022-10-11T19:59:20.824Z,11.93
2022-10-11T20:01:52.634Z,11.92
2022-10-11T20:04:50.457Z,11.91
2022-10-11T20:07:10.555Z,11.89
2022-10-11T20:09:38.430Z,11.89
2022-10-11T20:12:07.288Z,11.88
2022-10-11T20:14:35.613Z,11.87
2022-10-11T20:17:03.840Z,11.86
2022-10-11T20:19:31.991Z,11.85
2022-10-11T20:22:01.019Z,11.85
2022-10-11T20:24:33.143Z,11.85
2022-10-11T20:27:04.624Z,11.85
2022-10-11T20:29:33.007Z,11.85
2022-10-11T20:32:00.973Z,11.84
2022-10-11T20:34:29.150Z,11.84
2022-10-11T20:36:57.319Z,11.83
2022-10-11T20:39:25.455Z,11.82
2022-10-11T20:41:53.390Z,11.81
2022-10-11T20:44:21.540Z,11.81
2022-10-11T20:46:49.709Z,11.80
2022-10-11T20:49:20.119Z,11.79
2022-10-11T20:51:48.835Z,11.78
2022-10-11T20:54:17.413Z,11.77
2022-10-11T20:56:45.746Z,11.76
2022-10-11T20:59:13.629Z,11.75
2022-10-11T21:01:41.919Z,11.73
2022-10-11T21:04:18.326Z,11.72
2022-10-11T21:06:48.416Z,11.70
2022-10-11T21:09:17.401Z,11.68
2022-10-11T21:11:46.514Z,11.66
2022-10-11T21:14:14.786Z,11.65
2022-10-11T21:16:42.756Z,11.63
2022-10-11T21:19:14.101Z,11.61
2022-10-11T21:21:42.880Z,11.60
2022-10-11T21:24:11.048Z,11.58
2022-10-11T21:26:39.012Z,11.55
2022-10-11T21:29:08.935Z,11.52
2022-10-11T21:31:37.019Z,11.51
2022-10-11T21:34:06.761Z,11.48
2022-10-11T21:36:35.533Z,11.44
2022-10-11T21:39:03.909Z,11.41
2022-10-11T21:41:31.970Z,11.37
2022-10-11T21:44:00.065Z,11.32
2022-10-11T21:47:04.779Z,11.28
2022-10-11T21:49:19.857Z,11.23
2022-10-11T21:51:48.937Z,11.18
2022-10-11T21:54:17.233Z,11.14
2022-10-11T21:56:45.145Z,11.08
2022-10-11T21:59:13.089Z,11.03
2022-10-11T22:01:42.042Z,10.99
2022-10-11T22:04:11.109Z,10.95
2022-10-11T22:06:40.132Z,10.89
2022-10-11T22:09:09.055Z,10.85
2022-10-11T22:11:37.404Z,10.80
2022-10-11T22:14:05.333Z,10.76
2022-10-11T22:16:34.980Z,10.73
2022-10-11T22:19:03.256Z,10.70
2022-10-11T22:21:31.536Z,10.67
2022-10-11T22:23:59.421Z,10.64
2022-10-11T22:26:31.049Z,10.62
2022-10-11T22:29:00.422Z,10.60
2022-10-11T22:31:30.383Z,10.58
2022-10-11T22:34:00.600Z,10.58
2022-10-11T22:36:33.907Z,10.58
2022-10-11T22:39:07.879Z,10.57
2022-10-11T22:41:36.487Z,10.58
2022-10-11T22:44:04.986Z,10.59
2022-10-11T22:46:33.196Z,10.60
2022-10-11T22:49:01.321Z,10.61
2022-10-11T22:51:29.294Z,10.62
2022-10-11T22:53:57.360Z,10.64
2022-10-11T22:56:25.438Z,10.65
2022-10-11T22:58:53.323Z,10.65
2022-10-11T23:01:21.574Z,10.66
2022-10-11T23:03:50.849Z,10.67
2022-10-11T23:06:19.003Z,10.68
2022-10-11T23:08:47.018Z,10.68
2022-10-11T23:11:15.198Z,10.69
2022-10-11T23:13:43.269Z,10.69
2022-10-11T23:16:13.186Z,10.69
2022-10-11T23:18:41.866Z,10.69
2022-10-11T23:21:10.346Z,10.70
2022-10-11T23:23:40.016Z,10.70
2022-10-11T23:26:11.917Z,10.71
2022-10-11T23:28:40.457Z,10.72
2022-10-11T23:31:10.780Z,10.73
2022-10-11T23:33:39.309Z,10.74
2022-10-11T23:36:17.576Z,10.74
2022-10-11T23:38:49.993Z,10.75
2022-10-11T23:41:18.270Z,10.75
2022-10-11T23:43:46.343Z,10.75
2022-10-11T23:46:15.154Z,10.75
2022-10-11T23:48:43.203Z,10.75
2022-10-11T23:51:11.685Z,10.75
2022-10-11T23:53:39.655Z,10.75
2022-10-11T23:56:08.648Z,10.75
2022-10-11T23:58:36.718Z,10.76
